Lake Hughes, CA (93532)

6:52 PM PDT on August 25, 2016 (GMT -0700)
WOR | | Change Station

Elev 4088 ft 34.71 °N, 118.56 °W | Updated 41 seconds ago

Clear
Clear
78.3 °F
Feels Like 78 °F
N
7.6
Wind Variable Wind from SSW
Gusts 15.0 mph

Today
High -- | Low -- °F
--% Chance of Precip.
Yesterday
High -- | Low -- °F
Precip. -- in
Pressure 29.89 in
Visibility 10.0 miles
Clouds Clear
Heat Index 78 °F
Dew Point 44 °F
Humidity 30%
Rainfall 0.00 in
Snow Depth Not available.
6:22 AM 7:29 PM
Last Quarter, 40% visible
METAR KSDB 260148Z AUTO 19009KT 10SM CLR 23/09 A3006 RMK AO2 SLP122 T02330089
Pressure 29.89 in
Visibility 10.0 miles
Clouds Clear
Heat Index 78 °F
Dew Point 44 °F
Humidity 30%
Rainfall 0.00 in
Snow Depth Not available.
6:22 AM 7:29 PM
Last Quarter, 40% visible
METAR KSDB 260148Z AUTO 19009KT 10SM CLR 23/09 A3006 RMK AO2 SLP122 T02330089
A tropical disturbance pushing toward the Bahamas, is expected to develop into a tropical depression or storm, and will likely target Florida and the Gulf Coast this weekend into next week.

Right now, the disturbance remains a broad area of low pressure pushing through the Dominican Republic and Haiti, headed toward the southeast Bahamas. Rainfall totals over 3 inches (with locally higher amounts) are expected in HispaƱiola, particularly over elevated terrain.

10-Day Weather Forecast

Almanac

Astronomy

Aug. 25, 2016 Rise Set
Actual Time
Civil Twilight
Nautical Twilight
Astronomical Twilight
Moon
Length of Visible Light
Length of Day
Tomorrow will be .
, % of the Moon is Illuminated

Today's Extremes

State Highs State Lows

Community

WunderPhotos

Upload Photos

1,935,017 photos uploaded!

WunderBlog® & News

Nearby

Air Quality

  Air Quality AQ Index Pollutant
Not available.

Snow Depth

Station Depth Elevation

Earthquake Activity

City Distance Mag. Time & Date
Minimum magnitude displayed is 2.5.

Coastal Water Temperatures

Place Temperature

Stations

Nearby Weather Stations

Station Location Temp. Windchill Dew Point Humidity Wind Precip. Elev Updated Type
                   

Watches & Warnings

There are currently no watches in effect.